createdAt,value
2023-02-22T00:02:11.340Z,3.60
2023-02-22T00:04:40.004Z,4.60
2023-02-22T00:07:08.559Z,4.60
2023-02-22T00:09:36.876Z,4.80
2023-02-22T00:12:05.248Z,3.90
2023-02-22T00:14:33.633Z,3.60
2023-02-22T00:17:02.643Z,4.60
2023-02-22T00:19:31.224Z,3.30
2023-02-22T00:22:00.248Z,3.90
2023-02-22T00:24:29.622Z,3.30
2023-02-22T00:26:57.829Z,5.00
2023-02-22T00:29:26.324Z,4.20
2023-02-22T00:31:54.751Z,5.10
2023-02-22T00:34:24.325Z,4.70
2023-02-22T00:36:52.613Z,4.00
2023-02-22T00:39:21.048Z,4.80
2023-02-22T00:41:49.840Z,4.80
2023-02-22T00:44:18.217Z,5.10
2023-02-22T00:46:46.784Z,3.30
2023-02-22T00:49:17.125Z,3.80
2023-02-22T00:51:45.848Z,4.60
2023-02-22T00:54:14.537Z,5.50
2023-02-22T00:56:43.005Z,4.80
2023-02-22T00:59:11.564Z,5.90
2023-02-22T01:01:39.795Z,5.40
2023-02-22T01:04:08.096Z,5.50
2023-02-22T01:06:36.852Z,5.60
2023-02-22T01:09:05.099Z,5.50
2023-02-22T01:11:33.975Z,4.50
2023-02-22T01:14:02.630Z,5.10
2023-02-22T01:16:31.328Z,4.20
2023-02-22T01:19:01.477Z,6.50
2023-02-22T01:21:29.741Z,5.90
2023-02-22T01:23:57.942Z,8.20
2023-02-22T01:26:27.403Z,9.40
2023-02-22T01:28:55.495Z,6.00
2023-02-22T01:31:24.309Z,6.10
2023-02-22T01:33:52.430Z,4.20
2023-02-22T01:36:20.698Z,8.70
2023-02-22T01:38:48.898Z,8.80
2023-02-22T01:41:18.671Z,4.00
2023-02-22T01:43:46.998Z,5.40
2023-02-22T01:46:29.971Z,5.90
2023-02-22T01:49:06.419Z,4.60
2023-02-22T01:51:40.071Z,5.90
2023-02-22T01:54:13.958Z,6.30
2023-02-22T01:57:00.940Z,5.40
2023-02-22T01:59:34.594Z,4.50
2023-02-22T02:02:04.734Z,3.60
2023-02-22T02:04:34.490Z,3.90
2023-02-22T02:07:06.183Z,6.10
2023-02-22T02:09:45.077Z,5.50
2023-02-22T02:12:16.203Z,5.50
2023-02-22T02:14:44.843Z,6.90
2023-02-22T02:17:16.615Z,6.60
2023-02-22T02:19:54.083Z,4.90
2023-02-22T02:22:51.873Z,4.10
2023-02-22T02:25:54.669Z,6.60
2023-02-22T02:28:51.538Z,3.40
2023-02-22T02:31:44.203Z,4.40
2023-02-22T02:34:21.969Z,4.70
2023-02-22T02:37:07.065Z,4.40
2023-02-22T02:42:11.275Z,6.10
2023-02-22T02:44:58.603Z,3.20
2023-02-22T02:47:31.565Z,5.50
2023-02-22T02:50:11.763Z,5.60
2023-02-22T02:52:41.738Z,4.00
2023-02-22T02:55:11.532Z,5.50
2023-02-22T02:57:42.705Z,5.30
2023-02-22T03:00:22.865Z,4.20
2023-02-22T03:03:10.376Z,3.50
2023-02-22T03:05:39.286Z,3.00
2023-02-22T03:08:35.272Z,3.30
2023-02-22T03:11:15.747Z,5.80
2023-02-22T03:14:04.518Z,5.30
2023-02-22T03:17:05.233Z,9.20
2023-02-22T03:19:43.373Z,9.50
2023-02-22T03:22:17.758Z,9.40
2023-02-22T03:24:53.313Z,5.80
2023-02-22T03:27:32.199Z,5.90
2023-02-22T03:30:05.898Z,4.20
2023-02-22T03:32:38.706Z,4.00
2023-02-22T03:35:23.221Z,4.00
2023-02-22T03:37:57.179Z,4.10
2023-02-22T03:40:33.856Z,5.30
2023-02-22T03:43:08.556Z,4.20
2023-02-22T03:45:43.557Z,4.70
2023-02-22T03:48:26.688Z,6.10
2023-02-22T03:50:55.134Z,5.80
2023-02-22T03:53:23.523Z,4.60
2023-02-22T03:55:58.441Z,4.60
2023-02-22T03:58:30.961Z,3.70
2023-02-22T04:00:59.450Z,4.50
2023-02-22T04:03:27.805Z,6.40
2023-02-22T04:05:56.485Z,7.10
2023-02-22T04:08:25.061Z,6.90
2023-02-22T04:10:53.765Z,6.70
2023-02-22T04:13:24.985Z,8.90
2023-02-22T04:15:55.133Z,7.00
2023-02-22T04:18:23.788Z,5.20
2023-02-22T04:20:52.088Z,6.60
2023-02-22T04:23:31.844Z,5.70
2023-02-22T04:26:00.295Z,5.30
2023-02-22T04:28:28.540Z,3.70
2023-02-22T04:31:07.785Z,3.60
2023-02-22T04:33:36.173Z,3.90
2023-02-22T04:36:04.623Z,5.20
2023-02-22T04:38:35.108Z,6.70
2023-02-22T04:41:03.487Z,5.80
2023-02-22T04:43:32.533Z,5.00
2023-02-22T04:46:07.035Z,5.90
2023-02-22T04:48:35.734Z,5.70
2023-02-22T04:51:04.362Z,7.80
2023-02-22T04:53:33.296Z,6.00
2023-02-22T04:56:01.926Z,6.00
2023-02-22T04:58:31.986Z,18.70
2023-02-22T05:01:01.287Z,10.10
2023-02-22T05:03:29.483Z,19.30
2023-02-22T05:05:57.560Z,15.10
2023-02-22T05:08:25.756Z,20.70
2023-02-22T05:10:54.834Z,7.00
2023-02-22T05:13:23.005Z,34.50
2023-02-22T05:15:51.265Z,10.60
2023-02-22T05:18:19.628Z,10.30
2023-02-22T05:20:47.930Z,8.90
2023-02-22T05:23:16.167Z,6.90
2023-02-22T05:25:44.562Z,5.90
2023-02-22T05:28:15.096Z,5.40
2023-02-22T05:30:43.607Z,7.00
2023-02-22T05:33:11.870Z,6.90
2023-02-22T05:35:40.279Z,6.60
2023-02-22T05:38:10.150Z,8.00
2023-02-22T05:40:38.304Z,7.20
2023-02-22T05:43:06.447Z,8.50
2023-02-22T05:45:34.620Z,16.20
2023-02-22T05:48:03.974Z,12.20
2023-02-22T05:50:33.364Z,7.80
2023-02-22T05:53:02.705Z,13.40
2023-02-22T05:55:30.923Z,14.60
2023-02-22T05:57:59.122Z,13.90
2023-02-22T06:00:31.197Z,11.90
2023-02-22T06:03:08.187Z,12.30
2023-02-22T06:05:37.707Z,9.20
2023-02-22T06:08:07.575Z,10.30
2023-02-22T06:10:36.081Z,6.50
2023-02-22T06:13:05.946Z,6.10
2023-02-22T06:15:34.373Z,7.20
2023-02-22T06:18:02.965Z,9.30
2023-02-22T06:20:31.484Z,10.60
2023-02-22T06:22:59.758Z,8.80
2023-02-22T06:25:33.777Z,7.40
2023-02-22T06:28:02.748Z,10.00
2023-02-22T06:30:33.384Z,9.50
2023-02-22T06:33:04.997Z,6.30
2023-02-22T06:35:33.313Z,4.40
2023-02-22T06:38:01.627Z,3.70
2023-02-22T06:40:29.880Z,4.90
2023-02-22T06:42:59.926Z,7.80
2023-02-22T06:45:28.276Z,6.40
2023-02-22T06:47:56.663Z,8.60
2023-02-22T06:50:26.700Z,7.30
2023-02-22T06:52:55.798Z,5.20
2023-02-22T06:55:31.831Z,7.00
2023-02-22T06:58:01.228Z,8.50
2023-02-22T07:00:31.296Z,6.00
2023-02-22T07:03:00.398Z,4.90
2023-02-22T07:05:35.169Z,4.50
2023-02-22T07:08:07.272Z,5.90
2023-02-22T07:10:37.681Z,4.40
2023-02-22T07:13:08.750Z,3.40
2023-02-22T07:15:37.072Z,4.30
2023-02-22T07:18:05.917Z,3.80
2023-02-22T07:20:36.366Z,4.50
2023-02-22T07:23:10.733Z,4.00
2023-02-22T07:25:38.969Z,4.30
2023-02-22T07:28:07.324Z,4.10
2023-02-22T07:30:35.567Z,3.70
2023-02-22T07:33:07.639Z,4.50
2023-02-22T07:35:56.190Z,4.00
2023-02-22T07:38:24.317Z,4.20
2023-02-22T07:40:52.637Z,4.20
2023-02-22T07:43:26.413Z,2.80
2023-02-22T07:45:56.942Z,2.00
2023-02-22T07:48:31.871Z,3.00
2023-02-22T07:51:01.306Z,4.30
2023-02-22T07:53:33.506Z,4.80
2023-02-22T07:56:05.466Z,4.10
2023-02-22T07:58:34.084Z,3.70
2023-02-22T08:01:02.336Z,2.40
2023-02-22T08:03:38.178Z,3.40
2023-02-22T08:06:07.860Z,3.00
2023-02-22T08:08:36.376Z,3.10
2023-02-22T08:11:04.994Z,3.00
2023-02-22T08:13:33.337Z,2.20
2023-02-22T08:16:03.853Z,2.10
2023-02-22T08:18:32.461Z,2.40
2023-02-22T08:21:00.587Z,2.10
2023-02-22T08:23:28.875Z,2.10
2023-02-22T08:25:57.285Z,4.20
2023-02-22T08:28:25.640Z,3.60
2023-02-22T08:30:54.261Z,3.60
2023-02-22T08:33:22.818Z,2.70
2023-02-22T08:35:51.964Z,3.00
2023-02-22T08:38:27.380Z,2.70
2023-02-22T08:40:55.593Z,1.80
2023-02-22T08:43:24.440Z,4.20
2023-02-22T08:45:53.564Z,3.50
2023-02-22T08:48:22.885Z,4.80
2023-02-22T08:50:51.233Z,4.60
2023-02-22T08:53:20.411Z,3.00
2023-02-22T08:55:49.950Z,3.70
2023-02-22T08:58:20.595Z,3.10
2023-02-22T09:00:49.278Z,2.90
2023-02-22T09:03:17.546Z,3.80
2023-02-22T09:05:45.782Z,3.90
2023-02-22T09:08:16.352Z,3.20
2023-02-22T09:10:45.471Z,3.00
2023-02-22T09:13:13.819Z,2.80
2023-02-22T09:15:43.277Z,2.10
2023-02-22T09:18:14.756Z,2.80
2023-02-22T09:20:43.094Z,2.20
2023-02-22T09:23:11.677Z,3.00
2023-02-22T09:25:41.150Z,2.70
2023-02-22T09:28:09.604Z,3.20
2023-02-22T09:30:41.145Z,2.10
2023-02-22T09:33:20.454Z,2.10
2023-02-22T09:35:50.196Z,2.60
2023-02-22T09:38:24.881Z,3.60
2023-02-22T09:40:55.702Z,2.40
2023-02-22T09:43:40.759Z,2.50
2023-02-22T09:46:16.148Z,2.10
2023-02-22T09:49:16.687Z,3.40
2023-02-22T09:51:49.516Z,2.80
2023-02-22T09:55:13.183Z,3.20
2023-02-22T09:57:44.108Z,3.80
2023-02-22T10:00:15.455Z,3.00
2023-02-22T10:03:01.007Z,4.50
2023-02-22T10:05:37.961Z,4.20
2023-02-22T10:08:12.838Z,6.00
2023-02-22T10:10:47.396Z,3.20
2023-02-22T10:13:25.398Z,3.40
2023-02-22T10:16:05.245Z,2.90
2023-02-22T10:19:08.056Z,2.70
2023-02-22T10:22:01.129Z,2.90
2023-02-22T10:24:39.914Z,2.30
2023-02-22T10:27:19.268Z,2.70
2023-02-22T10:29:57.380Z,5.10
2023-02-22T10:32:35.642Z,2.50
2023-02-22T10:35:13.931Z,2.30
2023-02-22T10:37:42.274Z,2.50
2023-02-22T10:40:37.171Z,3.30
2023-02-22T10:43:08.667Z,2.50
2023-02-22T10:45:37.254Z,2.70
2023-02-22T10:48:09.645Z,3.30
2023-02-22T10:50:42.143Z,3.40
2023-02-22T10:53:11.318Z,4.10
2023-02-22T10:56:09.487Z,3.30
2023-02-22T10:58:51.245Z,3.30
2023-02-22T11:01:22.277Z,2.60
2023-02-22T11:04:14.865Z,3.60
2023-02-22T11:06:48.851Z,2.90
2023-02-22T11:09:18.593Z,2.40
2023-02-22T11:11:49.235Z,3.20
2023-02-22T11:14:29.566Z,2.60
2023-02-22T11:17:01.789Z,3.70
2023-02-22T11:22:07.986Z,2.90
2023-02-22T11:24:51.024Z,2.30
2023-02-22T11:27:38.703Z,2.80
2023-02-22T11:30:20.812Z,3.50
2023-02-22T11:33:16.984Z,4.10
2023-02-22T11:36:26.678Z,3.00
2023-02-22T11:39:07.451Z,2.80
2023-02-22T11:41:49.412Z,2.60
2023-02-22T11:44:36.914Z,2.50
2023-02-22T11:56:28.402Z,2.50
2023-02-22T11:59:40.343Z,3.00
2023-02-22T12:03:17.267Z,3.40
2023-02-22T12:10:40.244Z,2.80
2023-02-22T12:14:17.657Z,2.90
2023-02-22T12:17:30.365Z,2.60
2023-02-22T12:20:41.811Z,2.60
2023-02-22T12:24:21.659Z,2.80
2023-02-22T12:27:53.111Z,2.80
2023-02-22T12:35:20.779Z,3.00
2023-02-22T12:37:57.411Z,2.50
2023-02-22T12:41:22.408Z,2.70
2023-02-22T12:44:03.813Z,2.70
2023-02-22T12:47:06.631Z,2.60
2023-02-22T12:50:27.288Z,2.30
2023-02-22T12:53:58.773Z,4.00
2023-02-22T13:00:06.850Z,3.20
2023-02-22T13:03:24.195Z,3.20
2023-02-22T13:06:11.882Z,3.90
2023-02-22T13:10:20.653Z,3.20
2023-02-22T13:21:36.705Z,3.50
2023-02-22T13:25:29.001Z,2.90
2023-02-22T13:28:22.011Z,3.20
2023-02-22T13:31:21.895Z,2.80
2023-02-22T13:34:59.012Z,3.30
2023-02-22T13:38:44.906Z,3.60
2023-02-22T13:41:29.782Z,2.60
2023-02-22T13:44:10.343Z,3.80
2023-02-22T13:47:05.623Z,3.70
2023-02-22T13:50:24.016Z,2.90
2023-02-22T13:52:58.473Z,4.00
2023-02-22T13:55:32.817Z,2.60
2023-02-22T13:58:07.923Z,3.80
2023-02-22T14:01:01.660Z,3.20
2023-02-22T14:03:41.359Z,2.60
2023-02-22T14:06:29.883Z,7.60
2023-02-22T14:08:58.715Z,3.00
2023-02-22T14:11:42.577Z,3.80
2023-02-22T14:14:17.971Z,2.40
2023-02-22T14:17:23.916Z,2.90
2023-02-22T14:20:47.845Z,3.40
2023-02-22T14:23:37.640Z,2.80
2023-02-22T14:26:21.006Z,3.30
2023-02-22T14:29:02.905Z,3.40
2023-02-22T14:31:36.995Z,4.30
2023-02-22T14:34:58.217Z,4.00
2023-02-22T14:37:30.782Z,3.90
2023-02-22T14:40:19.374Z,4.80
2023-02-22T14:43:12.341Z,4.70
2023-02-22T14:46:01.205Z,5.00
2023-02-22T14:48:41.528Z,11.40
2023-02-22T14:51:56.841Z,5.00
2023-02-22T14:55:19.701Z,2.90
2023-02-22T14:58:19.782Z,4.20
2023-02-22T15:00:52.849Z,3.40
2023-02-22T15:03:42.323Z,2.50
2023-02-22T15:06:41.147Z,2.80
2023-02-22T15:09:32.363Z,3.90
2023-02-22T15:12:05.205Z,3.90
2023-02-22T15:14:50.158Z,3.40
2023-02-22T15:17:33.584Z,4.60
2023-02-22T15:20:18.541Z,3.30
2023-02-22T15:22:51.977Z,3.80
2023-02-22T15:25:28.579Z,4.00
2023-02-22T15:28:05.481Z,3.20
2023-02-22T15:30:34.481Z,4.00
2023-02-22T15:33:24.710Z,4.10
2023-02-22T15:35:55.687Z,5.80
2023-02-22T15:38:30.661Z,5.40
2023-02-22T15:41:31.653Z,5.10
2023-02-22T15:44:23.140Z,4.50
2023-02-22T15:47:05.906Z,4.20
2023-02-22T15:50:15.865Z,7.10
2023-02-22T15:52:54.401Z,5.90
2023-02-22T15:55:29.730Z,4.90
2023-02-22T15:58:11.097Z,4.80
2023-02-22T16:01:00.375Z,3.90
2023-02-22T16:03:51.287Z,5.50
2023-02-22T16:06:36.026Z,5.20
2023-02-22T16:09:09.876Z,4.10
2023-02-22T16:11:44.734Z,3.60
2023-02-22T16:14:27.478Z,4.70
2023-02-22T16:17:29.324Z,5.60
2023-02-22T16:20:19.256Z,5.70
2023-02-22T16:22:50.401Z,5.50
2023-02-22T16:25:18.629Z,7.30
2023-02-22T16:28:26.863Z,7.00
2023-02-22T16:30:59.069Z,7.40
2023-02-22T16:33:33.970Z,7.70
2023-02-22T16:36:08.173Z,6.90
2023-02-22T16:38:38.653Z,6.80
2023-02-22T16:41:08.570Z,5.50
2023-02-22T16:43:37.131Z,5.00
2023-02-22T16:46:07.083Z,6.30
2023-02-22T16:48:38.494Z,10.10
2023-02-22T16:51:15.001Z,10.50
2023-02-22T16:53:47.351Z,6.60
2023-02-22T16:56:18.408Z,9.70
2023-02-22T16:58:55.845Z,10.10
2023-02-22T17:01:24.212Z,10.80
2023-02-22T17:03:54.626Z,9.80
2023-02-22T17:06:31.677Z,9.30
2023-02-22T17:09:00.111Z,10.30
2023-02-22T17:11:28.672Z,7.60
2023-02-22T17:13:57.025Z,13.30
2023-02-22T17:16:25.509Z,9.90
2023-02-22T17:18:57.059Z,10.50
2023-02-22T17:21:38.789Z,8.50
2023-02-22T17:24:14.379Z,10.10
2023-02-22T17:26:45.487Z,10.10
2023-02-22T17:29:15.376Z,10.00
2023-02-22T17:31:44.121Z,16.40
2023-02-22T17:34:12.620Z,17.70
2023-02-22T17:36:40.914Z,18.70
2023-02-22T17:39:10.834Z,18.10
2023-02-22T17:41:40.999Z,11.40
2023-02-22T17:44:10.322Z,15.80
2023-02-22T17:46:41.042Z,18.20
2023-02-22T17:49:09.450Z,14.50
2023-02-22T17:51:40.267Z,11.50
2023-02-22T17:54:10.365Z,11.40
2023-02-22T17:56:38.920Z,6.50
2023-02-22T17:59:10.328Z,10.70
2023-02-22T18:01:38.724Z,21.00
2023-02-22T18:04:07.159Z,17.30
2023-02-22T18:06:36.370Z,25.20
2023-02-22T18:09:10.740Z,26.90
2023-02-22T18:11:39.714Z,24.90
2023-02-22T18:14:10.162Z,14.50
2023-02-22T18:16:39.623Z,18.60
2023-02-22T18:19:08.329Z,11.90
2023-02-22T18:21:38.565Z,14.40
2023-02-22T18:24:07.907Z,22.30
2023-02-22T18:26:42.754Z,12.00
2023-02-22T18:29:15.742Z,27.80
2023-02-22T18:31:48.116Z,19.30
2023-02-22T18:34:17.860Z,20.10
2023-02-22T18:36:46.629Z,10.80
2023-02-22T18:39:18.675Z,11.60
2023-02-22T18:41:48.905Z,18.00
2023-02-22T18:44:22.905Z,16.50
2023-02-22T18:46:54.388Z,15.40
2023-02-22T18:49:23.903Z,15.30
2023-02-22T18:52:00.536Z,15.30
2023-02-22T18:54:36.748Z,13.50
2023-02-22T18:57:14.102Z,9.60
2023-02-22T18:59:47.723Z,12.90
2023-02-22T19:02:21.602Z,16.10
2023-02-22T19:04:52.433Z,12.20
2023-02-22T19:07:23.280Z,14.00
2023-02-22T19:10:10.190Z,18.90
2023-02-22T19:15:08.320Z,17.60
2023-02-22T19:17:36.796Z,14.00
2023-02-22T19:20:10.263Z,7.70
2023-02-22T19:25:12.491Z,18.80
2023-02-22T19:27:44.407Z,18.60
2023-02-22T19:32:47.538Z,12.10
2023-02-22T19:35:26.381Z,20.10
2023-02-22T19:37:55.916Z,20.50
2023-02-22T19:40:25.151Z,13.70
2023-02-22T19:42:55.493Z,12.50
2023-02-22T19:45:25.160Z,12.70
2023-02-22T19:47:56.398Z,12.60
2023-02-22T19:50:24.726Z,20.90
2023-02-22T19:52:56.219Z,12.50
2023-02-22T19:55:24.808Z,19.60
2023-02-22T19:57:53.392Z,20.00
2023-02-22T20:00:24.693Z,14.20
2023-02-22T20:03:09.590Z,12.50
2023-02-22T20:05:43.487Z,12.80
2023-02-22T20:08:12.101Z,14.20
2023-02-22T20:10:43.827Z,9.30
2023-02-22T20:13:12.326Z,14.10
2023-02-22T20:15:40.885Z,13.10
2023-02-22T20:18:10.359Z,17.30
2023-02-22T20:20:40.512Z,11.70
2023-02-22T20:23:09.651Z,17.00
2023-02-22T20:25:38.214Z,19.90
2023-02-22T20:28:13.327Z,20.20
2023-02-22T20:30:41.778Z,18.60
2023-02-22T20:33:13.897Z,19.40
2023-02-22T20:35:42.550Z,19.60
2023-02-22T20:38:19.516Z,15.50
2023-02-22T20:40:48.097Z,14.20
2023-02-22T20:43:16.669Z,14.00
2023-02-22T20:45:47.225Z,13.30
2023-02-22T20:48:16.084Z,13.80
2023-02-22T20:50:48.229Z,9.60
2023-02-22T20:53:17.914Z,14.10
2023-02-22T20:55:57.385Z,11.70
2023-02-22T20:58:26.274Z,21.70
2023-02-22T21:00:55.106Z,21.40
2023-02-22T21:03:24.810Z,22.70
2023-02-22T21:05:53.501Z,22.90
2023-02-22T21:08:24.790Z,14.50
2023-02-22T21:11:17.967Z,16.70
2023-02-22T21:14:01.311Z,31.70
2023-02-22T21:16:41.631Z,25.00
2023-02-22T21:19:16.758Z,25.40
2023-02-22T21:21:57.150Z,34.20
2023-02-22T21:24:39.511Z,34.00
2023-02-22T21:27:12.441Z,24.20
2023-02-22T21:29:58.999Z,17.40
2023-02-22T21:32:35.265Z,29.50
2023-02-22T21:35:45.442Z,22.10
2023-02-22T21:41:20.134Z,14.40
2023-02-22T21:43:54.829Z,13.30
2023-02-22T21:46:29.639Z,25.40
2023-02-22T21:51:41.958Z,20.80
2023-02-22T21:54:24.874Z,22.80
2023-02-22T21:57:00.010Z,22.00
2023-02-22T21:59:33.870Z,23.00
2023-02-22T22:02:03.438Z,14.10
2023-02-22T22:04:42.334Z,9.60
2023-02-22T22:07:35.025Z,21.30
2023-02-22T22:10:09.843Z,23.50
2023-02-22T22:12:42.254Z,18.40
2023-02-22T22:15:16.563Z,21.20
2023-02-22T22:17:48.935Z,17.90
2023-02-22T22:20:24.113Z,20.20
2023-02-22T22:22:57.784Z,7.70
2023-02-22T22:25:32.919Z,22.00
2023-02-22T22:28:12.459Z,20.90
2023-02-22T22:30:45.422Z,14.40
2023-02-22T22:33:23.697Z,13.20
2023-02-22T22:35:59.079Z,9.80
2023-02-22T22:41:31.406Z,8.00
2023-02-22T22:44:23.981Z,18.70
2023-02-22T22:47:02.553Z,20.10
2023-02-22T22:50:01.610Z,18.00
2023-02-22T22:52:40.309Z,18.10
2023-02-22T22:55:15.888Z,15.30
2023-02-22T22:57:48.161Z,15.10
2023-02-22T23:00:32.493Z,18.30
2023-02-22T23:03:07.365Z,18.80
2023-02-22T23:05:46.556Z,15.70
2023-02-22T23:08:21.898Z,16.90
2023-02-22T23:10:56.997Z,8.50
2023-02-22T23:13:28.380Z,8.40
2023-02-22T23:16:02.159Z,17.80
2023-02-22T23:18:43.354Z,14.40
2023-02-22T23:21:12.004Z,13.90
2023-02-22T23:23:48.442Z,11.00
2023-02-22T23:26:18.284Z,17.60
2023-02-22T23:28:56.798Z,11.30
2023-02-22T23:31:33.088Z,17.10
2023-02-22T23:34:09.851Z,15.70
2023-02-22T23:36:47.153Z,18.00
2023-02-22T23:39:18.397Z,11.10
2023-02-22T23:41:54.996Z,9.20
2023-02-22T23:44:29.399Z,8.40
2023-02-22T23:47:02.686Z,17.90
2023-02-22T23:49:43.733Z,13.00
2023-02-22T23:52:24.410Z,10.20
2023-02-22T23:54:54.316Z,15.20
2023-02-22T23:57:30.385Z,15.10
